SLC Intl Airport
, Salt Lake City
Last Weather Update:1/31/2012
Date
ETo
ETc
Rain
Irrigation
Req
Temp
Max
Temp
Min
Temp
Avg
Avg RH
Avg Wind
Avg Solar
inches
inches
incehs
inches
F
F
F
%
%
watts/m2
12/1/2011 0.07" 0.00" 0.00" 0.00" 42.5° 28.8° 37.0° 40.9% 8.4 MPH 110.2w/m2
12/2/2011 0.04" 0.00" 0.00" 0.00" 38.6° 24.3° 29.8° 64.3% 3.7 MPH 105.4w/m2
12/3/2011 0.05" 0.00" 0.00" 0.00" 36.3° 23.3° 29.8° 64.7% 6.3 MPH 123.0w/m2
12/4/2011 0.02" 0.00" 0.00" 0.00" 30.7° 23.4° 26.9° 67.8% 2.9 MPH 57.9w/m2
12/5/2011 0.04" 0.00" 0.00" 0.00" 27.5° 16.2° 21.9° 53.5% 3.8 MPH 128.2w/m2
12/6/2011 0.03" 0.00" 0.00" 0.00" 32.5° 16.7° 22.5° 56.2% 4.1 MPH 111.1w/m2
12/7/2011 0.04" 0.00" 0.00" 0.00" 34.7° 18.2° 25.2° 61.4% 3.4 MPH 118.6w/m2
12/8/2011 0.03" 0.00" 0.00" 0.00" 35.9° 20.3° 27.6° 69.1% 2.1 MPH 113.8w/m2
12/9/2011 0.03" 0.00" 0.00" 0.00" 38.3° 21.0° 28.3° 72.4% 2.3 MPH 111.9w/m2
12/10/2011 0.03" 0.00" 0.00" 0.00" 39.5° 20.3° 27.9° 73.4% 1.8 MPH 113.5w/m2
12/11/2011 0.02" 0.00" 0.00" 0.00" 36.8° 19.4° 27.1° 80.5% 1.8 MPH 100.7w/m2
12/12/2011 0.02" 0.00" 0.00" 0.00" 40.9° 17.3° 28.6° 81.0% 2.4 MPH 71.1w/m2
12/13/2011 0.01" 0.00" 0.01" -0.01" 32.2° 25.9° 30.1° 88.8% 2.5 MPH 26.3w/m2
12/14/2011 0.02" 0.00" 0.01" -0.01" 34.0° 24.5° 29.6° 88.7% 2.7 MPH 38.3w/m2
12/15/2011 0.02" 0.00" 0.00" 0.00" 29.3° 23.4° 26.7° 85.1% 3.2 MPH 53.4w/m2
12/16/2011 0.02" 0.00" 0.00" 0.00" 30.1° 21.6° 27.4° 77.1% 2.8 MPH 43.0w/m2
12/17/2011 0.02" 0.00" 0.00" 0.00" 31.2° 19.3° 25.2° 81.1% 2.5 MPH 77.4w/m2
12/18/2011 0.02" 0.00" 0.00" 0.00" 30.5° 23.8° 26.3° 82.5% 3.3 MPH 78.1w/m2
12/19/2011 0.01" 0.00" 0.00" 0.00" 27.9° 23.6° 25.9° 80.1% 3.7 MPH 41.3w/m2
12/20/2011 0.02" 0.00" 0.00" 0.00" 32.1° 22.3° 27.5° 77.0% 2.8 MPH 44.4w/m2
12/21/2011 0.03" 0.00" 0.00" 0.00" 34.8° 22.8° 28.5° 72.5% 5.2 MPH 70.2w/m2
12/22/2011 0.04" 0.00" 0.00" 0.00" 33.7° 21.5° 26.4° 62.0% 7.2 MPH 113.8w/m2
12/23/2011 0.03" 0.00" 0.00" 0.00" 33.4° 15.8° 23.7° 61.3% 2.6 MPH 114.6w/m2
12/24/2011 0.03" 0.00" 0.00" 0.00" 33.5° 15.8° 23.8° 65.9% 2.4 MPH 112.3w/m2
12/25/2011 0.03" 0.00" 0.00" 0.00" 38.1° 17.3° 26.1° 66.2% 2.2 MPH 108.3w/m2
12/26/2011 0.03" 0.00" 0.00" 0.00" 39.9° 17.6° 25.6° 72.7% 2.0 MPH 102.3w/m2
12/27/2011 0.02" 0.00" 0.00" 0.00" 37.2° 17.7° 27.0° 75.0% 3.1 MPH 75.1w/m2
12/28/2011 0.02" 0.00" 0.00" 0.00" 44.4° 24.0° 33.0° 63.9% 2.5 MPH 42.5w/m2
12/29/2011 0.04" 0.00" 0.00" 0.00" 54.4° 31.7° 43.8° 53.0% 3.6 MPH 54.8w/m2
12/30/2011 0.10" 0.00" 0.00" 0.00" 62.1° 40.9° 50.3° 42.5% 10.1 MPH 53.8w/m2
12/31/2011 0.06" 0.00" 0.00" 0.00" 54.3° 27.3° 34.6° 41.5% 9.3 MPH 120.9w/m2
Totals: 1.01" 0.00" 0.02" -0.02" 62.1° 15.8° 28.8° 68.5% 3.8 MPH 85.0w/m2